Airport View

Enter AWOS ICAO identifier for current METAR.

ex. KFNL

K3F3 251155Z AUTO 03003KT 5SM BR BKN006 BKN010 OVC020 18/18 A3003 RMK AO2 70001 T01840180 10196 20184

25 Sep 2020 12:04

Frequency: 119.125

Phone: 318-872-3537

Other Area AWOS: KSHV - KF17 - KBAD - KDTN

TAF KSHV 251140Z 2512/2612 00000KT 6SM BR BKN015 TEMPO 2512/2514 4SM BR BKN010 FM251400 VRB03KT 6SM BR BKN015 FM251600 15005KT P6SM BKN025 FM251800 16005KT P6SM SCT035 FM252200 VRB03KT P6SM SCT250 FM260900 VRB03KT P6SM BKN025